createdAt,value
2018-10-02T00:01:23.893Z,92.30
2018-10-02T00:03:52.278Z,92.40
2018-10-02T00:06:20.627Z,92.30
2018-10-02T00:08:48.996Z,92.40
2018-10-02T00:11:22.568Z,92.60
2018-10-02T00:13:56.262Z,92.70
2018-10-02T00:16:24.620Z,92.90
2018-10-02T00:18:53.015Z,93.00
2018-10-02T00:21:21.347Z,93.20
2018-10-02T00:23:49.664Z,93.40
2018-10-02T00:26:18.062Z,93.40
2018-10-02T00:28:46.469Z,93.50
2018-10-02T00:31:15.015Z,93.60
2018-10-02T00:33:43.393Z,93.70
2018-10-02T00:36:11.755Z,93.80
2018-10-02T00:38:40.124Z,93.80
2018-10-02T00:41:08.502Z,93.60
2018-10-02T00:43:36.841Z,93.60
2018-10-02T00:46:05.245Z,93.70
2018-10-02T00:48:33.652Z,93.70
2018-10-02T00:51:02.086Z,93.70
2018-10-02T00:53:30.456Z,93.70
2018-10-02T00:55:58.856Z,93.70
2018-10-02T00:58:27.182Z,93.80
2018-10-02T01:00:55.532Z,93.90
2018-10-02T01:03:23.930Z,93.80
2018-10-02T01:05:52.315Z,94.20
2018-10-02T01:08:20.653Z,93.90
2018-10-02T01:10:49.023Z,94.00
2018-10-02T01:13:17.363Z,94.40
2018-10-02T01:15:45.739Z,94.30
2018-10-02T01:18:14.214Z,94.10
2018-10-02T01:20:42.589Z,94.20
2018-10-02T01:23:10.967Z,94.20
2018-10-02T01:25:39.361Z,94.00
2018-10-02T01:28:07.745Z,94.00
2018-10-02T01:30:36.125Z,93.90
2018-10-02T01:33:04.505Z,93.90
2018-10-02T01:35:32.893Z,94.00
2018-10-02T01:38:01.340Z,94.20
2018-10-02T01:40:29.834Z,94.30
2018-10-02T01:42:58.153Z,94.20
2018-10-02T01:45:26.796Z,94.30
2018-10-02T01:47:55.388Z,94.40
2018-10-02T01:50:23.823Z,94.20
2018-10-02T01:52:52.203Z,94.40
2018-10-02T01:55:20.617Z,94.40
2018-10-02T01:57:49.009Z,94.30
2018-10-02T02:00:17.440Z,94.40
2018-10-02T02:02:45.872Z,94.20
2018-10-02T02:05:14.227Z,94.30
2018-10-02T02:07:42.634Z,94.40
2018-10-02T02:10:11.145Z,94.20
2018-10-02T02:12:39.562Z,94.30
2018-10-02T02:15:07.914Z,94.60
2018-10-02T02:17:36.337Z,94.10
2018-10-02T02:20:04.712Z,93.90
2018-10-02T02:22:33.087Z,94.50
2018-10-02T02:25:01.487Z,94.60
2018-10-02T02:27:29.934Z,94.70
2018-10-02T02:29:58.294Z,94.80
2018-10-02T02:32:26.670Z,94.90
2018-10-02T02:34:55.003Z,94.90
2018-10-02T02:37:23.346Z,95.10
2018-10-02T02:39:51.718Z,95.00
2018-10-02T02:42:20.224Z,95.10
2018-10-02T02:44:48.577Z,95.10
2018-10-02T02:47:22.307Z,95.10
2018-10-02T02:49:55.961Z,95.30
2018-10-02T02:52:26.771Z,95.40
2018-10-02T02:54:55.099Z,95.30
2018-10-02T02:57:23.483Z,95.50
2018-10-02T02:59:51.898Z,95.60
2018-10-02T03:02:20.264Z,95.50
2018-10-02T03:04:48.617Z,95.60
2018-10-02T03:07:16.965Z,95.60
2018-10-02T03:09:45.304Z,95.70
2018-10-02T03:12:13.721Z,95.70
2018-10-02T03:14:42.099Z,95.80
2018-10-02T03:17:10.459Z,95.80
2018-10-02T03:19:38.835Z,95.70
2018-10-02T03:22:07.223Z,95.70
2018-10-02T03:24:35.555Z,95.90
2018-10-02T03:27:03.931Z,95.80
2018-10-02T03:29:32.351Z,95.90
2018-10-02T03:32:00.791Z,95.90
2018-10-02T03:34:29.120Z,96.10
2018-10-02T03:36:57.495Z,96.00
2018-10-02T03:39:25.915Z,96.10
2018-10-02T03:41:54.282Z,96.40
2018-10-02T03:44:22.625Z,96.70
2018-10-02T03:46:51.009Z,96.60
2018-10-02T03:49:19.351Z,97.00
2018-10-02T03:51:47.743Z,96.80
2018-10-02T03:54:16.217Z,96.90
2018-10-02T03:56:44.592Z,97.00
2018-10-02T03:59:13.116Z,97.10
2018-10-02T04:01:41.536Z,97.00
2018-10-02T04:04:09.884Z,97.00
2018-10-02T04:06:38.247Z,97.00
2018-10-02T04:09:09.112Z,97.00
2018-10-02T04:11:37.674Z,97.10
2018-10-02T04:14:06.466Z,97.10
2018-10-02T04:16:34.797Z,97.40
2018-10-02T04:19:03.168Z,97.60
2018-10-02T04:21:36.192Z,97.80
2018-10-02T04:24:06.741Z,97.70
2018-10-02T04:26:36.033Z,97.40
2018-10-02T04:29:05.132Z,97.40
2018-10-02T04:31:34.918Z,97.10
2018-10-02T04:34:03.354Z,97.50
2018-10-02T04:36:31.810Z,97.90
2018-10-02T04:39:00.276Z,98.00
2018-10-02T04:41:28.689Z,98.20
2018-10-02T04:43:57.144Z,98.20
2018-10-02T04:46:25.478Z,98.20
2018-10-02T04:48:53.864Z,98.20
2018-10-02T04:51:22.363Z,98.20
2018-10-02T04:53:50.743Z,98.40
2018-10-02T04:56:19.170Z,98.30
2018-10-02T04:58:47.624Z,98.20
2018-10-02T05:01:15.996Z,98.30
2018-10-02T05:03:44.487Z,98.40
2018-10-02T05:06:12.906Z,98.50
2018-10-02T05:08:41.417Z,98.70
2018-10-02T05:11:09.742Z,98.60
2018-10-02T05:13:38.094Z,98.60
2018-10-02T05:16:06.450Z,98.60
2018-10-02T05:18:34.829Z,98.50
2018-10-02T05:21:03.242Z,98.70
2018-10-02T05:23:31.720Z,98.80
2018-10-02T05:26:00.208Z,98.90
2018-10-02T05:28:31.461Z,98.90
2018-10-02T05:31:00.042Z,98.70
2018-10-02T05:33:28.464Z,98.70
2018-10-02T05:35:56.831Z,98.80
2018-10-02T05:38:25.237Z,99.00
2018-10-02T05:40:53.701Z,99.00
2018-10-02T05:43:22.268Z,99.00
2018-10-02T05:45:51.044Z,98.80
2018-10-02T05:48:19.456Z,98.60
2018-10-02T05:50:47.897Z,98.70
2018-10-02T05:53:16.942Z,98.70
2018-10-02T05:55:45.679Z,98.70
2018-10-02T05:58:14.162Z,98.60
2018-10-02T06:00:42.590Z,98.60
2018-10-02T06:03:11.100Z,98.40
2018-10-02T06:05:39.579Z,98.50
2018-10-02T06:08:08.028Z,98.30
2018-10-02T06:10:36.694Z,98.20
2018-10-02T06:13:05.173Z,98.00
2018-10-02T06:15:33.602Z,97.90
2018-10-02T06:18:02.249Z,97.70
2018-10-02T06:20:30.802Z,97.10
2018-10-02T06:22:59.391Z,97.00
2018-10-02T06:25:28.030Z,96.60
2018-10-02T06:27:56.474Z,96.30
2018-10-02T06:30:24.993Z,96.10
2018-10-02T06:32:53.515Z,95.80
2018-10-02T06:35:21.922Z,95.40
2018-10-02T06:37:50.378Z,95.40
2018-10-02T06:40:19.166Z,95.30
2018-10-02T06:42:47.649Z,95.00
2018-10-02T06:45:16.132Z,94.90
2018-10-02T06:47:44.565Z,94.90
2018-10-02T06:50:13.046Z,94.90
2018-10-02T06:52:41.753Z,94.50
2018-10-02T06:55:10.095Z,94.50
2018-10-02T06:57:38.888Z,94.00
2018-10-02T07:00:07.712Z,94.10
2018-10-02T07:02:36.260Z,93.90
2018-10-02T07:05:04.933Z,93.60
2018-10-02T07:07:33.349Z,93.50
2018-10-02T07:10:01.789Z,93.30
2018-10-02T07:12:30.248Z,93.00
2018-10-02T07:14:58.755Z,92.80
2018-10-02T07:17:27.156Z,92.60
2018-10-02T07:19:55.607Z,92.90
2018-10-02T07:22:24.118Z,92.80
2018-10-02T07:24:52.604Z,92.40
2018-10-02T07:27:21.219Z,91.90
2018-10-02T07:29:49.668Z,92.40
2018-10-02T07:32:18.042Z,91.90
2018-10-02T07:34:47.498Z,91.80
2018-10-02T07:37:16.044Z,91.10
2018-10-02T07:39:44.641Z,90.80
2018-10-02T07:42:13.292Z,90.50
2018-10-02T07:44:41.905Z,89.60
2018-10-02T07:47:10.270Z,89.60
2018-10-02T07:49:38.705Z,89.50
2018-10-02T07:52:07.211Z,88.20
2018-10-02T07:54:35.580Z,88.40
2018-10-02T07:57:04.382Z,87.40
2018-10-02T07:59:32.855Z,86.60
2018-10-02T08:02:01.350Z,84.70
2018-10-02T08:04:29.844Z,84.00
2018-10-02T08:06:58.281Z,84.20
2018-10-02T08:09:26.741Z,84.20
2018-10-02T08:11:55.495Z,83.10
2018-10-02T08:14:24.326Z,82.50
2018-10-02T08:16:52.819Z,80.80
2018-10-02T08:19:21.432Z,78.60
2018-10-02T08:21:50.071Z,78.20
2018-10-02T08:24:18.551Z,77.90
2018-10-02T08:26:47.188Z,77.80
2018-10-02T08:29:15.690Z,76.90
2018-10-02T08:31:44.213Z,77.20
2018-10-02T08:34:12.663Z,77.60
2018-10-02T08:36:41.074Z,77.50
2018-10-02T08:39:10.622Z,77.40
2018-10-02T08:41:39.410Z,77.60
2018-10-02T08:44:07.966Z,77.20
2018-10-02T08:46:36.433Z,77.00
2018-10-02T08:49:05.630Z,76.70
2018-10-02T08:51:34.066Z,76.40
2018-10-02T08:54:02.619Z,75.70
2018-10-02T08:56:30.992Z,75.30
2018-10-02T08:58:59.513Z,75.50
2018-10-02T09:01:28.070Z,75.50
2018-10-02T09:03:56.557Z,75.50
2018-10-02T09:06:25.123Z,75.00
2018-10-02T09:08:53.681Z,75.30
2018-10-02T09:11:22.267Z,75.10
2018-10-02T09:13:50.662Z,74.60
2018-10-02T09:16:19.566Z,74.20
2018-10-02T09:18:48.023Z,72.60
2018-10-02T09:21:16.533Z,71.90
2018-10-02T09:23:48.060Z,71.40
2018-10-02T09:26:19.083Z,71.20
2018-10-02T09:28:47.820Z,70.70
2018-10-02T09:31:21.704Z,69.90
2018-10-02T09:34:59.365Z,69.50
2018-10-02T09:37:33.397Z,69.30
2018-10-02T09:41:04.772Z,70.10
2018-10-02T09:43:38.709Z,70.00
2018-10-02T09:46:07.196Z,68.70
2018-10-02T09:48:35.784Z,67.70
2018-10-02T09:51:04.368Z,68.50
2018-10-02T09:53:32.802Z,67.70
2018-10-02T09:56:01.291Z,70.10
2018-10-02T09:58:30.096Z,69.00
2018-10-02T10:01:03.879Z,68.80
2018-10-02T10:03:32.658Z,70.10
2018-10-02T10:06:02.312Z,70.40
2018-10-02T10:08:30.896Z,70.90
2018-10-02T10:10:59.337Z,70.80
2018-10-02T10:13:27.766Z,69.10
2018-10-02T10:15:56.164Z,68.50
2018-10-02T10:18:24.695Z,68.30
2018-10-02T10:20:53.163Z,68.20
2018-10-02T10:23:21.725Z,69.10
2018-10-02T10:25:50.135Z,68.80
2018-10-02T10:28:18.684Z,69.00
2018-10-02T10:30:47.319Z,68.90
2018-10-02T10:33:15.784Z,69.10
2018-10-02T10:35:44.467Z,70.70
2018-10-02T10:38:13.077Z,69.70
2018-10-02T10:40:41.493Z,69.70
2018-10-02T10:43:09.923Z,69.60
2018-10-02T10:45:38.292Z,70.00
2018-10-02T10:48:06.722Z,70.00
2018-10-02T10:50:35.178Z,69.90
2018-10-02T10:53:03.624Z,69.80
2018-10-02T10:55:33.797Z,70.00
2018-10-02T10:58:02.265Z,70.40
2018-10-02T11:00:30.706Z,72.50
2018-10-02T11:02:59.184Z,73.40
2018-10-02T11:05:27.509Z,74.10
2018-10-02T11:07:55.988Z,75.10
2018-10-02T11:10:24.721Z,75.60
2018-10-02T11:12:53.144Z,75.30
2018-10-02T11:15:22.172Z,75.90
2018-10-02T11:20:44.182Z,76.70
2018-10-02T11:23:12.658Z,76.90
2018-10-02T11:25:41.118Z,77.50
2018-10-02T11:28:09.656Z,78.20
2018-10-02T11:30:38.167Z,78.10
2018-10-02T11:33:06.737Z,78.40
2018-10-02T11:35:35.439Z,78.20
2018-10-02T11:38:03.796Z,78.50
2018-10-02T11:40:32.249Z,79.50
2018-10-02T11:43:00.844Z,79.90
2018-10-02T11:45:29.339Z,79.90
2018-10-02T11:47:57.857Z,80.90
2018-10-02T11:50:26.396Z,80.70
2018-10-02T11:52:54.841Z,80.40
2018-10-02T11:55:26.296Z,81.20
2018-10-02T11:57:54.757Z,80.10
2018-10-02T12:00:23.230Z,80.50
2018-10-02T12:02:51.644Z,80.10
2018-10-02T12:05:20.019Z,81.10
2018-10-02T12:07:48.488Z,80.20
2018-10-02T12:10:17.040Z,80.30
2018-10-02T12:12:45.488Z,80.50
2018-10-02T12:15:13.922Z,81.30
2018-10-02T12:17:42.458Z,79.50
2018-10-02T12:20:10.914Z,79.00
2018-10-02T12:22:39.663Z,79.40
2018-10-02T12:25:08.408Z,79.00
2018-10-02T12:27:37.038Z,80.90
2018-10-02T12:30:05.556Z,81.60
2018-10-02T12:32:33.992Z,82.10
2018-10-02T12:35:02.539Z,81.40
2018-10-02T12:37:30.992Z,81.80
2018-10-02T12:39:59.502Z,81.80
2018-10-02T12:42:27.894Z,82.40
2018-10-02T12:44:56.277Z,82.10
2018-10-02T12:47:24.873Z,83.80
2018-10-02T12:49:53.642Z,83.20
2018-10-02T12:52:22.200Z,84.20
2018-10-02T12:54:50.606Z,85.40
2018-10-02T12:57:19.288Z,84.70
2018-10-02T12:59:47.728Z,85.90
2018-10-02T13:02:16.277Z,86.20
2018-10-02T13:04:44.869Z,85.70
2018-10-02T13:07:13.319Z,85.80
2018-10-02T13:09:42.085Z,85.60
2018-10-02T13:12:10.612Z,86.50
2018-10-02T13:14:39.059Z,86.10
2018-10-02T13:17:07.532Z,86.70
2018-10-02T13:19:36.003Z,87.30
2018-10-02T13:22:04.537Z,87.70
2018-10-02T13:24:33.323Z,88.50
2018-10-02T13:28:05.073Z,89.30
2018-10-02T13:30:33.621Z,89.70
2018-10-02T13:33:03.077Z,91.00
2018-10-02T13:35:31.501Z,91.60
2018-10-02T13:37:59.901Z,91.70
2018-10-02T13:40:28.398Z,91.20
2018-10-02T13:42:56.751Z,91.00
2018-10-02T13:45:25.153Z,91.20
2018-10-02T13:47:53.582Z,91.30
2018-10-02T13:50:21.943Z,91.30
2018-10-02T13:52:50.344Z,91.80
2018-10-02T13:55:18.768Z,91.90
2018-10-02T13:57:47.167Z,92.30
2018-10-02T14:00:15.604Z,92.30
2018-10-02T14:02:44.174Z,92.70
2018-10-02T14:05:12.552Z,93.10
2018-10-02T14:07:40.958Z,93.30
2018-10-02T14:10:09.052Z,93.50
2018-10-02T14:12:37.460Z,93.10
2018-10-02T14:15:05.993Z,93.50
2018-10-02T14:17:34.356Z,93.50
2018-10-02T14:20:02.771Z,93.10
2018-10-02T14:22:31.192Z,93.50
2018-10-02T14:24:59.549Z,93.20
2018-10-02T14:27:28.223Z,93.10
2018-10-02T14:29:56.629Z,93.40
2018-10-02T14:32:25.082Z,93.00
2018-10-02T14:34:53.579Z,92.60
2018-10-02T14:37:22.195Z,92.60
2018-10-02T14:39:50.852Z,92.50
2018-10-02T14:42:19.330Z,92.40
2018-10-02T14:44:47.726Z,92.30
2018-10-02T14:47:16.680Z,92.30
2018-10-02T14:49:45.129Z,92.40
2018-10-02T14:52:13.569Z,92.30
2018-10-02T14:54:41.938Z,92.20
2018-10-02T14:57:10.585Z,92.60
2018-10-02T14:59:39.024Z,92.70
2018-10-02T15:02:07.516Z,92.80
2018-10-02T15:04:35.955Z,93.50
2018-10-02T15:07:04.368Z,93.60
2018-10-02T15:09:32.834Z,94.30
2018-10-02T15:12:01.318Z,94.90
2018-10-02T15:14:29.683Z,95.20
2018-10-02T15:16:58.149Z,95.80
2018-10-02T15:19:26.494Z,96.00
2018-10-02T15:21:55.281Z,96.00
2018-10-02T15:24:23.662Z,96.30
2018-10-02T15:26:52.083Z,96.60
2018-10-02T15:29:20.629Z,97.30
2018-10-02T15:31:49.149Z,97.30
2018-10-02T15:34:23.955Z,97.50
2018-10-02T15:36:52.489Z,97.50
2018-10-02T15:39:20.836Z,97.80
2018-10-02T15:41:49.217Z,97.70
2018-10-02T15:44:18.221Z,97.70
2018-10-02T15:46:46.607Z,97.60
2018-10-02T15:49:15.036Z,97.50
2018-10-02T15:51:43.543Z,97.40
2018-10-02T15:54:11.985Z,97.70
2018-10-02T15:56:40.361Z,97.70
2018-10-02T15:59:08.759Z,97.60
2018-10-02T16:01:37.201Z,97.40
2018-10-02T16:04:05.647Z,97.80
2018-10-02T16:06:34.030Z,98.00
2018-10-02T16:09:02.416Z,98.00
2018-10-02T16:11:30.804Z,98.20
2018-10-02T16:13:59.172Z,98.20
2018-10-02T16:16:27.617Z,97.70
2018-10-02T16:18:56.102Z,97.80
2018-10-02T16:21:24.630Z,98.00
2018-10-02T16:23:53.047Z,97.90
2018-10-02T16:26:21.458Z,98.20
2018-10-02T16:28:50.122Z,98.40
2018-10-02T16:31:18.513Z,98.50
2018-10-02T16:33:46.888Z,98.50
2018-10-02T16:36:15.420Z,98.70
2018-10-02T16:38:43.797Z,98.60
2018-10-02T16:41:12.271Z,98.60
2018-10-02T16:43:41.156Z,98.70
2018-10-02T16:46:11.475Z,99.00
2018-10-02T16:48:39.892Z,98.90
2018-10-02T16:51:08.319Z,99.00
2018-10-02T16:53:36.672Z,99.10
2018-10-02T16:56:05.074Z,99.30
2018-10-02T16:58:33.590Z,99.20
2018-10-02T17:01:02.037Z,99.30
2018-10-02T17:03:30.437Z,99.20
2018-10-02T17:05:58.798Z,99.30
2018-10-02T17:08:27.315Z,99.30
2018-10-02T17:10:55.676Z,99.10
2018-10-02T17:13:24.143Z,99.10
2018-10-02T17:15:52.525Z,99.10
2018-10-02T17:18:20.931Z,99.30
2018-10-02T17:20:49.294Z,99.40
2018-10-02T17:23:17.677Z,99.70
2018-10-02T17:25:46.152Z,99.90
2018-10-02T17:28:14.571Z,99.90
2018-10-02T17:30:42.902Z,99.90
2018-10-02T17:33:11.354Z,99.90
2018-10-02T17:35:39.785Z,99.90
2018-10-02T17:38:08.194Z,99.90
2018-10-02T17:40:36.643Z,99.90
2018-10-02T17:43:05.285Z,99.90
2018-10-02T17:45:33.691Z,99.90
2018-10-02T17:48:02.131Z,99.90
2018-10-02T17:50:30.586Z,99.90
2018-10-02T17:53:00.288Z,99.90
2018-10-02T17:55:28.721Z,99.90
2018-10-02T17:57:57.116Z,99.90
2018-10-02T18:00:25.638Z,99.90
2018-10-02T18:02:54.085Z,99.90
2018-10-02T18:05:22.560Z,99.90
2018-10-02T18:07:51.083Z,99.90
2018-10-02T18:10:19.494Z,99.90
2018-10-02T18:12:47.909Z,99.90
2018-10-02T18:15:16.353Z,99.90
2018-10-02T18:17:44.893Z,99.90
2018-10-02T18:20:13.273Z,99.90
2018-10-02T18:22:41.705Z,99.90
2018-10-02T18:25:10.067Z,99.90
2018-10-02T18:27:38.471Z,99.90
2018-10-02T18:30:06.878Z,99.90
2018-10-02T18:32:35.263Z,99.90
2018-10-02T18:35:03.643Z,99.90
2018-10-02T18:37:32.009Z,99.90
2018-10-02T18:40:00.395Z,99.90
2018-10-02T18:42:28.766Z,99.90
2018-10-02T18:44:57.156Z,99.90
2018-10-02T18:47:25.561Z,99.90
2018-10-02T18:49:54.040Z,99.90
2018-10-02T18:52:22.622Z,99.90
2018-10-02T18:54:51.021Z,99.90
2018-10-02T18:57:19.407Z,99.90
2018-10-02T18:59:47.982Z,99.90
2018-10-02T19:02:16.456Z,99.90
2018-10-02T19:04:44.857Z,99.90
2018-10-02T19:07:13.212Z,99.90
2018-10-02T19:09:41.649Z,99.90
2018-10-02T19:12:11.809Z,99.90
2018-10-02T19:14:40.241Z,99.90
2018-10-02T19:17:08.663Z,99.90
2018-10-02T19:19:42.536Z,99.90
2018-10-02T19:22:10.951Z,99.90
2018-10-02T19:24:40.257Z,99.90
2018-10-02T19:27:08.684Z,99.90
2018-10-02T19:29:37.120Z,99.90
2018-10-02T19:32:09.274Z,99.90
2018-10-02T19:34:37.648Z,99.90
2018-10-02T19:37:11.410Z,99.90
2018-10-02T19:39:39.803Z,99.90
2018-10-02T19:42:08.240Z,99.90
2018-10-02T19:44:36.650Z,99.90
2018-10-02T19:47:05.414Z,99.90
2018-10-02T19:49:34.909Z,99.90
2018-10-02T19:52:09.150Z,99.90
2018-10-02T19:54:39.169Z,99.90
2018-10-02T19:57:10.017Z,99.90
2018-10-02T19:59:39.524Z,99.90
2018-10-02T20:02:08.456Z,99.90
2018-10-02T20:04:37.562Z,99.90
2018-10-02T20:07:06.274Z,99.90
2018-10-02T20:09:35.047Z,99.90
2018-10-02T20:12:03.900Z,99.90
2018-10-02T20:17:11.554Z,99.90
2018-10-02T20:19:39.935Z,99.90
2018-10-02T20:22:10.227Z,99.90
2018-10-02T20:24:38.622Z,99.90
2018-10-02T20:27:07.039Z,99.90
2018-10-02T20:29:35.416Z,99.90
2018-10-02T20:32:03.843Z,99.90
2018-10-02T20:34:32.216Z,99.90
2018-10-02T20:37:00.621Z,99.90
2018-10-02T20:39:29.017Z,99.90
2018-10-02T20:41:57.507Z,99.90
2018-10-02T20:44:25.898Z,99.90
2018-10-02T20:46:54.332Z,99.90
2018-10-02T20:49:22.840Z,99.90
2018-10-02T20:51:51.168Z,99.90
2018-10-02T20:54:20.057Z,99.90
2018-10-02T20:56:48.436Z,99.90
2018-10-02T20:59:16.868Z,99.90
2018-10-02T21:01:45.439Z,99.90
2018-10-02T21:04:13.805Z,99.90
2018-10-02T21:06:42.188Z,99.90
2018-10-02T21:09:10.597Z,99.90
2018-10-02T21:11:39.079Z,99.90
2018-10-02T21:14:07.496Z,99.90
2018-10-02T21:16:35.890Z,99.90
2018-10-02T21:19:04.342Z,99.90
2018-10-02T21:21:32.761Z,99.90
2018-10-02T21:24:01.235Z,99.90
2018-10-02T21:26:29.653Z,99.90
2018-10-02T21:28:58.199Z,99.90
2018-10-02T21:31:26.568Z,99.90
2018-10-02T21:33:54.932Z,99.90
2018-10-02T21:36:23.361Z,99.90
2018-10-02T21:38:51.744Z,99.90
2018-10-02T21:41:20.144Z,99.90
2018-10-02T21:43:48.533Z,99.90
2018-10-02T21:46:16.966Z,99.90
2018-10-02T21:48:45.331Z,99.90
2018-10-02T21:51:13.705Z,99.90
2018-10-02T21:53:42.103Z,99.90
2018-10-02T21:56:10.500Z,99.90
2018-10-02T21:58:38.888Z,99.90
2018-10-02T22:01:07.252Z,99.90
2018-10-02T22:03:37.599Z,99.90
2018-10-02T22:06:05.665Z,99.90
2018-10-02T22:08:34.061Z,99.90
2018-10-02T22:11:02.445Z,99.90
2018-10-02T22:13:30.841Z,99.90
2018-10-02T22:15:59.579Z,99.90
2018-10-02T22:18:28.023Z,99.90
2018-10-02T22:20:56.691Z,99.90
2018-10-02T22:23:25.121Z,99.90
2018-10-02T22:25:53.495Z,99.90
2018-10-02T22:28:21.903Z,99.90
2018-10-02T22:30:50.367Z,99.90
2018-10-02T22:33:18.798Z,99.90
2018-10-02T22:35:47.153Z,99.90
2018-10-02T22:38:15.519Z,99.90
2018-10-02T22:40:43.929Z,99.90
2018-10-02T22:43:12.320Z,98.90
2018-10-02T22:45:40.708Z,99.20
2018-10-02T22:48:09.095Z,99.10
2018-10-02T22:50:37.461Z,98.90
2018-10-02T22:53:05.876Z,99.10
2018-10-02T22:55:34.258Z,99.10
2018-10-02T22:58:02.656Z,99.30
2018-10-02T23:00:31.252Z,99.40
2018-10-02T23:02:59.659Z,99.50
2018-10-02T23:05:28.044Z,99.70
2018-10-02T23:07:56.415Z,99.60
2018-10-02T23:10:24.814Z,99.70
2018-10-02T23:12:53.213Z,99.90
2018-10-02T23:15:21.630Z,99.90
2018-10-02T23:17:50.070Z,99.90
2018-10-02T23:20:18.420Z,99.70
2018-10-02T23:22:46.929Z,99.30
2018-10-02T23:25:15.317Z,99.20
2018-10-02T23:27:43.699Z,99.10
2018-10-02T23:30:12.104Z,99.30
2018-10-02T23:32:40.502Z,99.10
2018-10-02T23:35:08.914Z,99.20
2018-10-02T23:37:37.365Z,99.00
2018-10-02T23:40:05.856Z,99.00
2018-10-02T23:42:34.236Z,98.60
2018-10-02T23:45:02.661Z,98.30
2018-10-02T23:47:31.049Z,97.70
2018-10-02T23:49:59.463Z,97.70
2018-10-02T23:52:27.877Z,97.20
2018-10-02T23:54:56.307Z,97.20
2018-10-02T23:57:24.676Z,97.20
2018-10-02T23:59:53.092Z,96.60
